sensor_id;sensor_type;location;lat;lon;timestamp;pressure;altitude;pressure_sealevel;temperature;humidity
77325;BME280;66387;53.440;10.390;2024-03-07T00:00:25;102132.50;;;3.76;100.00
77325;BME280;66387;53.440;10.390;2024-03-07T00:02:51;102125.06;;;3.82;100.00
77325;BME280;66387;53.440;10.390;2024-03-07T00:05:20;102122.72;;;3.88;100.00
77325;BME280;66387;53.440;10.390;2024-03-07T00:07:45;102119.44;;;3.92;100.00
77325;BME280;66387;53.440;10.390;2024-03-07T00:10:11;102127.16;;;3.92;100.00
77325;BME280;66387;53.440;10.390;2024-03-07T00:12:38;102126.34;;;3.93;100.00
77325;BME280;66387;53.440;10.390;2024-03-07T00:15:09;102126.09;;;3.87;100.00
77325;BME280;66387;53.440;10.390;2024-03-07T00:17:36;102120.31;;;3.92;100.00
77325;BME280;66387;53.440;10.390;2024-03-07T00:20:02;102125.66;;;3.97;100.00
77325;BME280;66387;53.440;10.390;2024-03-07T00:22:29;102123.91;;;3.97;100.00
77325;BME280;66387;53.440;10.390;2024-03-07T00:24:55;102132.03;;;4.08;100.00
77325;BME280;66387;53.440;10.390;2024-03-07T00:27:20;102127.03;;;4.11;100.00
77325;BME280;66387;53.440;10.390;2024-03-07T00:29:47;102136.72;;;4.18;100.00
77325;BME280;66387;53.440;10.390;2024-03-07T00:32:18;102139.41;;;4.21;100.00
77325;BME280;66387;53.440;10.390;2024-03-07T00:34:44;102139.31;;;4.20;100.00
77325;BME280;66387;53.440;10.390;2024-03-07T00:37:09;102144.63;;;4.24;100.00
77325;BME280;66387;53.440;10.390;2024-03-07T00:39:34;102135.06;;;4.20;100.00
77325;BME280;66387;53.440;10.390;2024-03-07T00:42:00;102133.47;;;4.24;100.00
77325;BME280;66387;53.440;10.390;2024-03-07T00:44:25;102132.84;;;4.29;100.00
77325;BME280;66387;53.440;10.390;2024-03-07T00:46:51;102132.84;;;4.29;100.00
77325;BME280;66387;53.440;10.390;2024-03-07T00:49:17;102131.91;;;4.27;100.00
77325;BME280;66387;53.440;10.390;2024-03-07T00:51:42;102124.84;;;4.22;100.00
77325;BME280;66387;53.440;10.390;2024-03-07T00:54:07;102124.56;;;4.14;100.00
77325;BME280;66387;53.440;10.390;2024-03-07T00:56:33;102120.34;;;4.16;100.00
77325;BME280;66387;53.440;10.390;2024-03-07T00:58:58;102122.28;;;4.22;100.00
77325;BME280;66387;53.440;10.390;2024-03-07T01:01:23;102110.31;;;4.22;100.00
77325;BME280;66387;53.440;10.390;2024-03-07T01:03:49;102105.88;;;4.18;100.00
77325;BME280;66387;53.440;10.390;2024-03-07T01:06:14;102111.16;;;4.23;100.00
77325;BME280;66387;53.440;10.390;2024-03-07T01:08:39;102112.91;;;4.24;100.00
77325;BME280;66387;53.440;10.390;2024-03-07T01:11:05;102110.53;;;4.28;100.00
77325;BME280;66387;53.440;10.390;2024-03-07T01:13:40;102100.16;;;4.27;100.00
77325;BME280;66387;53.440;10.390;2024-03-07T01:16:06;102100.44;;;4.34;100.00
77325;BME280;66387;53.440;10.390;2024-03-07T01:18:32;102098.59;;;4.30;100.00
77325;BME280;66387;53.440;10.390;2024-03-07T01:20:59;102102.13;;;4.34;100.00
77325;BME280;66387;53.440;10.390;2024-03-07T01:23:24;102088.31;;;4.30;100.00
77325;BME280;66387;53.440;10.390;2024-03-07T01:25:49;102085.91;;;4.35;100.00
77325;BME280;66387;53.440;10.390;2024-03-07T01:28:15;102092.81;;;4.36;100.00
77325;BME280;66387;53.440;10.390;2024-03-07T01:30:42;102090.16;;;4.34;100.00
77325;BME280;66387;53.440;10.390;2024-03-07T01:33:07;102092.47;;;4.27;100.00
77325;BME280;66387;53.440;10.390;2024-03-07T01:35:32;102099.47;;;4.31;100.00
77325;BME280;66387;53.440;10.390;2024-03-07T01:37:58;102096.16;;;4.33;100.00
77325;BME280;66387;53.440;10.390;2024-03-07T01:40:23;102092.91;;;4.39;100.00
77325;BME280;66387;53.440;10.390;2024-03-07T01:42:49;102094.38;;;4.32;100.00
77325;BME280;66387;53.440;10.390;2024-03-07T01:45:15;102096.25;;;4.36;100.00
77325;BME280;66387;53.440;10.390;2024-03-07T01:47:40;102087.00;;;4.41;100.00
77325;BME280;66387;53.440;10.390;2024-03-07T01:50:07;102090.59;;;4.47;100.00
77325;BME280;66387;53.440;10.390;2024-03-07T01:52:33;102088.06;;;4.48;100.00
77325;BME280;66387;53.440;10.390;2024-03-07T01:54:58;102096.66;;;4.49;100.00
77325;BME280;66387;53.440;10.390;2024-03-07T01:57:23;102093.88;;;4.42;100.00
77325;BME280;66387;53.440;10.390;2024-03-07T01:59:49;102093.78;;;4.39;100.00
77325;BME280;66387;53.440;10.390;2024-03-07T02:02:16;102094.66;;;4.40;100.00
77325;BME280;66387;53.440;10.390;2024-03-07T02:04:42;102090.06;;;4.31;100.00
77325;BME280;66387;53.440;10.390;2024-03-07T02:07:08;102085.69;;;4.29;100.00
77325;BME280;66387;53.440;10.390;2024-03-07T02:09:36;102083.16;;;4.30;100.00
77325;BME280;66387;53.440;10.390;2024-03-07T02:12:02;102090.78;;;4.27;100.00
77325;BME280;66387;53.440;10.390;2024-03-07T02:14:27;102078.91;;;4.31;100.00
77325;BME280;66387;53.440;10.390;2024-03-07T02:16:53;102082.53;;;4.36;100.00
77325;BME280;66387;53.440;10.390;2024-03-07T02:19:21;102082.28;;;4.30;100.00
77325;BME280;66387;53.440;10.390;2024-03-07T02:21:46;102080.31;;;4.23;100.00
77325;BME280;66387;53.440;10.390;2024-03-07T02:24:11;102077.75;;;4.23;100.00
77325;BME280;66387;53.440;10.390;2024-03-07T02:26:37;102072.78;;;4.27;100.00
77325;BME280;66387;53.440;10.390;2024-03-07T02:29:04;102075.31;;;4.26;100.00
77325;BME280;66387;53.440;10.390;2024-03-07T02:31:30;102073.81;;;4.32;100.00
77325;BME280;66387;53.440;10.390;2024-03-07T02:34:04;102070.44;;;4.33;100.00
77325;BME280;66387;53.440;10.390;2024-03-07T02:36:30;102070.44;;;4.33;100.00
77325;BME280;66387;53.440;10.390;2024-03-07T02:38:56;102072.25;;;4.36;100.00
77325;BME280;66387;53.440;10.390;2024-03-07T02:41:21;102058.50;;;4.35;100.00
77325;BME280;66387;53.440;10.390;2024-03-07T02:43:46;102058.50;;;4.35;100.00
77325;BME280;66387;53.440;10.390;2024-03-07T02:46:12;102069.78;;;4.39;100.00
77325;BME280;66387;53.440;10.390;2024-03-07T02:48:40;102061.25;;;4.40;100.00
77325;BME280;66387;53.440;10.390;2024-03-07T02:51:06;102067.38;;;4.43;100.00
77325;BME280;66387;53.440;10.390;2024-03-07T02:53:31;102063.25;;;4.49;100.00
77325;BME280;66387;53.440;10.390;2024-03-07T02:55:57;102063.13;;;4.45;100.00
77325;BME280;66387;53.440;10.390;2024-03-07T02:58:23;102062.06;;;4.39;100.00
77325;BME280;66387;53.440;10.390;2024-03-07T03:00:56;102062.88;;;4.38;100.00
77325;BME280;66387;53.440;10.390;2024-03-07T03:03:21;102058.59;;;4.38;100.00
77325;BME280;66387;53.440;10.390;2024-03-07T03:05:47;102057.00;;;4.42;100.00
77325;BME280;66387;53.440;10.390;2024-03-07T03:08:12;102060.53;;;4.44;100.00
77325;BME280;66387;53.440;10.390;2024-03-07T03:10:39;102057.44;;;4.54;100.00
77325;BME280;66387;53.440;10.390;2024-03-07T03:13:04;102058.22;;;4.52;100.00
77325;BME280;66387;53.440;10.390;2024-03-07T03:15:29;102061.38;;;4.44;100.00
77325;BME280;66387;53.440;10.390;2024-03-07T03:17:55;102057.00;;;4.42;100.00
77325;BME280;66387;53.440;10.390;2024-03-07T03:20:22;102064.09;;;4.48;100.00
77325;BME280;66387;53.440;10.390;2024-03-07T03:22:53;102069.00;;;4.41;100.00
77325;BME280;66387;53.440;10.390;2024-03-07T03:25:22;102063.66;;;4.35;100.00
77325;BME280;66387;53.440;10.390;2024-03-07T03:27:48;102048.66;;;4.24;100.00
77325;BME280;66387;53.440;10.390;2024-03-07T03:30:14;102051.94;;;4.20;100.00
77325;BME280;66387;53.440;10.390;2024-03-07T03:32:40;102049.03;;;4.34;100.00
77325;BME280;66387;53.440;10.390;2024-03-07T03:35:07;102054.41;;;4.40;100.00
77325;BME280;66387;53.440;10.390;2024-03-07T03:37:33;102048.22;;;4.35;100.00
77325;BME280;66387;53.440;10.390;2024-03-07T03:39:58;102046.94;;;4.48;100.00
77325;BME280;66387;53.440;10.390;2024-03-07T03:42:23;102051.31;;;4.51;100.00
77325;BME280;66387;53.440;10.390;2024-03-07T03:44:49;102046.78;;;4.43;100.00
77325;BME280;66387;53.440;10.390;2024-03-07T03:47:14;102051.84;;;4.40;100.00
77325;BME280;66387;53.440;10.390;2024-03-07T03:49:40;102056.13;;;4.41;100.00
77325;BME280;66387;53.440;10.390;2024-03-07T03:52:05;102051.09;;;4.44;100.00
77325;BME280;66387;53.440;10.390;2024-03-07T03:54:30;102052.06;;;4.48;100.00
77325;BME280;66387;53.440;10.390;2024-03-07T03:56:55;102050.28;;;4.45;100.00
77325;BME280;66387;53.440;10.390;2024-03-07T03:59:21;102054.78;;;4.51;100.00
77325;BME280;66387;53.440;10.390;2024-03-07T04:01:46;102059.22;;;4.55;100.00
77325;BME280;66387;53.440;10.390;2024-03-07T04:04:11;102055.13;;;4.62;100.00
77325;BME280;66387;53.440;10.390;2024-03-07T04:06:36;102053.38;;;4.61;100.00
77325;BME280;66387;53.440;10.390;2024-03-07T04:09:02;102061.25;;;4.65;100.00
77325;BME280;66387;53.440;10.390;2024-03-07T04:11:27;102058.63;;;4.64;100.00
77325;BME280;66387;53.440;10.390;2024-03-07T04:13:52;102056.66;;;4.57;100.00
77325;BME280;66387;53.440;10.390;2024-03-07T04:16:17;102055.59;;;4.50;100.00
77325;BME280;66387;53.440;10.390;2024-03-07T04:18:44;102054.66;;;4.48;100.00
77325;BME280;66387;53.440;10.390;2024-03-07T04:21:09;102070.91;;;4.47;100.00
77325;BME280;66387;53.440;10.390;2024-03-07T04:23:34;102070.66;;;4.39;100.00
77325;BME280;66387;53.440;10.390;2024-03-07T04:26:00;102062.94;;;4.39;100.00
77325;BME280;66387;53.440;10.390;2024-03-07T04:28:25;102066.94;;;4.31;100.00
77325;BME280;66387;53.440;10.390;2024-03-07T04:30:50;102069.28;;;4.25;100.00
77325;BME280;66387;53.440;10.390;2024-03-07T04:33:18;102069.13;;;4.21;100.00
77325;BME280;66387;53.440;10.390;2024-03-07T04:35:44;102073.28;;;4.17;100.00
77325;BME280;66387;53.440;10.390;2024-03-07T04:38:10;102076.81;;;4.21;100.00
77325;BME280;66387;53.440;10.390;2024-03-07T04:40:40;102075.03;;;4.18;100.00
77325;BME280;66387;53.440;10.390;2024-03-07T04:43:05;102076.38;;;4.09;100.00
77325;BME280;66387;53.440;10.390;2024-03-07T04:45:30;102073.31;;;3.95;100.00
77325;BME280;66387;53.440;10.390;2024-03-07T04:47:56;102073.09;;;3.89;100.00
77325;BME280;66387;53.440;10.390;2024-03-07T04:50:21;102074.69;;;3.85;100.00
77325;BME280;66387;53.440;10.390;2024-03-07T04:52:47;102078.69;;;3.79;100.00
77325;BME280;66387;53.440;10.390;2024-03-07T04:55:12;102070.75;;;3.73;100.00
77325;BME280;66387;53.440;10.390;2024-03-07T04:57:38;102080.81;;;3.67;100.00
77325;BME280;66387;53.440;10.390;2024-03-07T05:00:09;102072.84;;;3.61;100.00
77325;BME280;66387;53.440;10.390;2024-03-07T05:02:42;102076.16;;;3.57;100.00
77325;BME280;66387;53.440;10.390;2024-03-07T05:05:08;102078.53;;;3.52;100.00
77325;BME280;66387;53.440;10.390;2024-03-07T05:07:33;102083.69;;;3.54;100.00
77325;BME280;66387;53.440;10.390;2024-03-07T05:10:01;102084.97;;;3.42;100.00
77325;BME280;66387;53.440;10.390;2024-03-07T05:12:26;102084.84;;;3.39;100.00
77325;BME280;66387;53.440;10.390;2024-03-07T05:14:51;102088.13;;;3.35;100.00
77325;BME280;66387;53.440;10.390;2024-03-07T05:17:16;102088.53;;;3.24;100.00
77325;BME280;66387;53.440;10.390;2024-03-07T05:19:44;102089.38;;;3.24;100.00
77325;BME280;66387;53.440;10.390;2024-03-07T05:22:10;102093.59;;;3.22;100.00
77325;BME280;66387;53.440;10.390;2024-03-07T05:24:40;102099.97;;;3.11;100.00
77325;BME280;66387;53.440;10.390;2024-03-07T05:27:07;102101.91;;;2.96;100.00
77325;BME280;66387;53.440;10.390;2024-03-07T05:29:32;102104.59;;;2.99;100.00
77325;BME280;66387;53.440;10.390;2024-03-07T05:32:26;102092.59;;;2.98;100.00
77325;BME280;66387;53.440;10.390;2024-03-07T05:34:52;102105.44;;;2.98;100.00
77325;BME280;66387;53.440;10.390;2024-03-07T05:37:21;102102.78;;;2.96;100.00
77325;BME280;66387;53.440;10.390;2024-03-07T05:39:50;102102.22;;;2.83;100.00
77325;BME280;66387;53.440;10.390;2024-03-07T05:42:15;102095.78;;;2.72;100.00
77325;BME280;66387;53.440;10.390;2024-03-07T05:44:41;102096.53;;;2.69;100.00
77325;BME280;66387;53.440;10.390;2024-03-07T05:47:07;102105.63;;;2.63;100.00
77325;BME280;66387;53.440;10.390;2024-03-07T05:49:32;102106.03;;;2.72;100.00
77325;BME280;66387;53.440;10.390;2024-03-07T05:51:58;102108.59;;;2.72;100.00
77325;BME280;66387;53.440;10.390;2024-03-07T05:54:23;102112.50;;;2.64;100.00
77325;BME280;66387;53.440;10.390;2024-03-07T05:56:48;102107.47;;;2.65;100.00
77325;BME280;66387;53.440;10.390;2024-03-07T05:59:13;102109.16;;;2.65;100.00
77325;BME280;66387;53.440;10.390;2024-03-07T06:01:39;102116.06;;;2.67;100.00
77325;BME280;66387;53.440;10.390;2024-03-07T06:04:06;102113.03;;;2.76;100.00
77325;BME280;66387;53.440;10.390;2024-03-07T06:06:35;102105.84;;;2.88;100.00
77325;BME280;66387;53.440;10.390;2024-03-07T06:09:05;102107.56;;;2.87;100.00
77325;BME280;66387;53.440;10.390;2024-03-07T06:11:37;102113.28;;;2.82;100.00
77325;BME280;66387;53.440;10.390;2024-03-07T06:14:03;102122.94;;;2.87;100.00
77325;BME280;66387;53.440;10.390;2024-03-07T06:16:30;102120.19;;;2.83;100.00
77325;BME280;66387;53.440;10.390;2024-03-07T06:18:59;102116.66;;;2.81;100.00
77325;BME280;66387;53.440;10.390;2024-03-07T06:21:24;102115.94;;;2.83;100.00
77325;BME280;66387;53.440;10.390;2024-03-07T06:23:49;102126.88;;;2.79;100.00
77325;BME280;66387;53.440;10.390;2024-03-07T06:26:24;102122.53;;;2.78;100.00
77325;BME280;66387;53.440;10.390;2024-03-07T06:29:02;102128.78;;;2.64;100.00
77325;BME280;66387;53.440;10.390;2024-03-07T06:31:30;102135.91;;;2.71;100.00
77325;BME280;66387;53.440;10.390;2024-03-07T06:33:55;102130.34;;;2.61;100.00
77325;BME280;66387;53.440;10.390;2024-03-07T06:36:20;102132.44;;;2.50;100.00
77325;BME280;66387;53.440;10.390;2024-03-07T06:38:45;102136.25;;;2.60;100.00
77325;BME280;66387;53.440;10.390;2024-03-07T06:41:11;102138.03;;;2.61;100.00
77325;BME280;66387;53.440;10.390;2024-03-07T06:43:36;102132.91;;;2.61;100.00
77325;BME280;66387;53.440;10.390;2024-03-07T06:46:01;102135.53;;;2.62;100.00
77325;BME280;66387;53.440;10.390;2024-03-07T06:48:27;102137.47;;;2.48;100.00
77325;BME280;66387;53.440;10.390;2024-03-07T06:50:52;102135.59;;;2.44;100.00
77325;BME280;66387;53.440;10.390;2024-03-07T06:53:18;102136.25;;;2.40;100.00
77325;BME280;66387;53.440;10.390;2024-03-07T06:55:43;102141.72;;;2.48;100.00
77325;BME280;66387;53.440;10.390;2024-03-07T06:58:08;102145.25;;;2.50;100.00
77325;BME280;66387;53.440;10.390;2024-03-07T07:00:35;102141.06;;;2.52;100.00
77325;BME280;66387;53.440;10.390;2024-03-07T07:03:01;102150.41;;;2.52;100.00
77325;BME280;66387;53.440;10.390;2024-03-07T07:05:29;102147.06;;;2.53;100.00
77325;BME280;66387;53.440;10.390;2024-03-07T07:07:55;102145.59;;;2.58;100.00
77325;BME280;66387;53.440;10.390;2024-03-07T07:10:20;102150.38;;;2.50;100.00
77325;BME280;66387;53.440;10.390;2024-03-07T07:12:49;102151.13;;;2.47;100.00
77325;BME280;66387;53.440;10.390;2024-03-07T07:15:16;102151.63;;;2.60;100.00
77325;BME280;66387;53.440;10.390;2024-03-07T07:17:43;102153.41;;;2.61;100.00
77325;BME280;66387;53.440;10.390;2024-03-07T07:20:12;102152.78;;;2.66;100.00
77325;BME280;66387;53.440;10.390;2024-03-07T07:22:40;102159.63;;;2.66;100.00
77325;BME280;66387;53.440;10.390;2024-03-07T07:25:07;102152.44;;;2.78;100.00
77325;BME280;66387;53.440;10.390;2024-03-07T07:27:40;102157.34;;;2.73;100.00
77325;BME280;66387;53.440;10.390;2024-03-07T07:30:06;102157.56;;;2.78;100.00
77325;BME280;66387;53.440;10.390;2024-03-07T07:32:32;102156.22;;;2.86;100.00
77325;BME280;66387;53.440;10.390;2024-03-07T07:34:57;102161.53;;;2.90;100.00
77325;BME280;66387;53.440;10.390;2024-03-07T07:37:22;102161.34;;;2.86;100.00
77325;BME280;66387;53.440;10.390;2024-03-07T07:39:48;102154.78;;;2.92;100.00
77325;BME280;66387;53.440;10.390;2024-03-07T07:42:13;102149.72;;;2.94;100.00
77325;BME280;66387;53.440;10.390;2024-03-07T07:44:40;102152.97;;;2.90;100.00
77325;BME280;66387;53.440;10.390;2024-03-07T07:47:05;102164.78;;;2.86;100.00
77325;BME280;66387;53.440;10.390;2024-03-07T07:49:31;102137.41;;;2.66;100.00
77325;BME280;66387;53.440;10.390;2024-03-07T07:51:56;102146.38;;;2.76;100.00
77325;BME280;66387;53.440;10.390;2024-03-07T07:54:21;102146.41;;;2.77;100.00
77325;BME280;66387;53.440;10.390;2024-03-07T07:56:46;102153.84;;;2.90;100.00
77325;BME280;66387;53.440;10.390;2024-03-07T07:59:13;102147.19;;;2.95;100.00
77325;BME280;66387;53.440;10.390;2024-03-07T08:01:38;102149.09;;;3.00;100.00
77325;BME280;66387;53.440;10.390;2024-03-07T08:04:04;102148.34;;;3.02;100.00
77325;BME280;66387;53.440;10.390;2024-03-07T08:06:29;102145.22;;;3.09;100.00
77325;BME280;66387;53.440;10.390;2024-03-07T08:08:55;102150.94;;;3.02;100.00
77325;BME280;66387;53.440;10.390;2024-03-07T08:11:20;102143.84;;;2.96;100.00
77325;BME280;66387;53.440;10.390;2024-03-07T08:13:45;102145.38;;;2.93;100.00
77325;BME280;66387;53.440;10.390;2024-03-07T08:16:15;102149.41;;;3.07;100.00
77325;BME280;66387;53.440;10.390;2024-03-07T08:18:41;102144.69;;;3.16;100.00
77325;BME280;66387;53.440;10.390;2024-03-07T08:21:06;102149.72;;;3.15;100.00
77325;BME280;66387;53.440;10.390;2024-03-07T08:23:31;102149.25;;;3.23;100.00
77325;BME280;66387;53.440;10.390;2024-03-07T08:25:56;102149.47;;;3.29;100.00
77325;BME280;66387;53.440;10.390;2024-03-07T08:28:22;102143.78;;;3.36;100.00
77325;BME280;66387;53.440;10.390;2024-03-07T08:30:48;102142.09;;;3.37;100.00
77325;BME280;66387;53.440;10.390;2024-03-07T08:33:13;102146.34;;;3.36;100.00
77325;BME280;66387;53.440;10.390;2024-03-07T08:35:39;102150.72;;;3.39;100.00
77325;BME280;66387;53.440;10.390;2024-03-07T08:38:04;102146.09;;;3.30;100.00
77325;BME280;66387;53.440;10.390;2024-03-07T08:40:30;102146.31;;;3.35;100.00
77325;BME280;66387;53.440;10.390;2024-03-07T08:42:59;102155.28;;;3.25;100.00
77325;BME280;66387;53.440;10.390;2024-03-07T08:45:26;102152.47;;;3.40;100.00
77325;BME280;66387;53.440;10.390;2024-03-07T08:47:56;102143.16;;;3.42;100.00
77325;BME280;66387;53.440;10.390;2024-03-07T08:50:21;102145.19;;;3.51;100.00
77325;BME280;66387;53.440;10.390;2024-03-07T08:52:48;102135.47;;;3.42;100.00
77325;BME280;66387;53.440;10.390;2024-03-07T08:55:15;102148.09;;;3.37;100.00
77325;BME280;66387;53.440;10.390;2024-03-07T08:57:43;102140.16;;;3.31;100.00
77325;BME280;66387;53.440;10.390;2024-03-07T09:00:14;102137.19;;;3.43;100.00
77325;BME280;66387;53.440;10.390;2024-03-07T09:02:56;102137.16;;;3.41;100.00
77325;BME280;66387;53.440;10.390;2024-03-07T09:05:23;102136.88;;;3.56;100.00
77325;BME280;66387;53.440;10.390;2024-03-07T09:07:49;102131.91;;;3.61;100.00
77325;BME280;66387;53.440;10.390;2024-03-07T09:10:15;102131.34;;;3.68;100.00
77325;BME280;66387;53.440;10.390;2024-03-07T09:12:41;102136.53;;;3.69;100.00
77325;BME280;66387;53.440;10.390;2024-03-07T09:15:07;102129.59;;;3.67;100.00
77325;BME280;66387;53.440;10.390;2024-03-07T09:17:34;102134.19;;;3.75;100.00
77325;BME280;66387;53.440;10.390;2024-03-07T09:20:02;102128.31;;;3.78;100.00
77325;BME280;66387;53.440;10.390;2024-03-07T09:22:29;102133.56;;;3.81;100.00
77325;BME280;66387;53.440;10.390;2024-03-07T09:24:54;102127.97;;;3.91;100.00
77325;BME280;66387;53.440;10.390;2024-03-07T09:27:20;102124.00;;;3.99;100.00
77325;BME280;66387;53.440;10.390;2024-03-07T09:29:46;102123.06;;;3.97;100.00
77325;BME280;66387;53.440;10.390;2024-03-07T09:32:15;102120.44;;;4.19;100.00
77325;BME280;66387;53.440;10.390;2024-03-07T09:34:40;102124.19;;;4.27;100.00
77325;BME280;66387;53.440;10.390;2024-03-07T09:37:05;102120.09;;;4.32;100.00
77325;BME280;66387;53.440;10.390;2024-03-07T09:39:33;102116.31;;;4.47;100.00
77325;BME280;66387;53.440;10.390;2024-03-07T09:42:02;102116.16;;;4.66;100.00
77325;BME280;66387;53.440;10.390;2024-03-07T09:44:28;102117.66;;;4.84;100.00
77325;BME280;66387;53.440;10.390;2024-03-07T09:46:55;102110.03;;;4.87;100.00
77325;BME280;66387;53.440;10.390;2024-03-07T09:49:26;102115.63;;;4.76;100.00
77325;BME280;66387;53.440;10.390;2024-03-07T09:51:54;102117.69;;;4.86;100.00
77325;BME280;66387;53.440;10.390;2024-03-07T09:54:22;102114.31;;;4.87;100.00
77325;BME280;66387;53.440;10.390;2024-03-07T09:56:50;102114.22;;;4.84;100.00
77325;BME280;66387;53.440;10.390;2024-03-07T09:59:19;102115.94;;;4.85;100.00
77325;BME280;66387;53.440;10.390;2024-03-07T10:01:45;102106.59;;;4.87;100.00
77325;BME280;66387;53.440;10.390;2024-03-07T10:04:13;102122.41;;;4.74;100.00
77325;BME280;66387;53.440;10.390;2024-03-07T10:06:40;102110.78;;;4.85;100.00
77325;BME280;66387;53.440;10.390;2024-03-07T10:09:06;102105.88;;;4.91;100.00
77325;BME280;66387;53.440;10.390;2024-03-07T10:11:33;102107.81;;;4.98;100.00
77325;BME280;66387;53.440;10.390;2024-03-07T10:13:58;102106.47;;;5.09;100.00
77325;BME280;66387;53.440;10.390;2024-03-07T10:16:24;102111.91;;;5.18;100.00
77325;BME280;66387;53.440;10.390;2024-03-07T10:18:49;102108.81;;;5.28;100.00
77325;BME280;66387;53.440;10.390;2024-03-07T10:21:19;102106.44;;;5.34;100.00
77325;BME280;66387;53.440;10.390;2024-03-07T10:23:44;102113.47;;;5.40;100.00
77325;BME280;66387;53.440;10.390;2024-03-07T10:26:10;102107.50;;;5.41;100.00
77325;BME280;66387;53.440;10.390;2024-03-07T10:28:35;102114.44;;;5.43;100.00
77325;BME280;66387;53.440;10.390;2024-03-07T10:31:02;102114.03;;;5.30;100.00
77325;BME280;66387;53.440;10.390;2024-03-07T10:33:28;102107.56;;;5.42;100.00
77325;BME280;66387;53.440;10.390;2024-03-07T10:35:58;102104.22;;;5.45;100.00
77325;BME280;66387;53.440;10.390;2024-03-07T10:38:23;102107.22;;;5.59;100.00
77325;BME280;66387;53.440;10.390;2024-03-07T10:40:52;102102.28;;;5.66;100.00
77325;BME280;66387;53.440;10.390;2024-03-07T10:43:20;102103.34;;;5.73;100.00
77325;BME280;66387;53.440;10.390;2024-03-07T10:45:47;102094.97;;;5.80;100.00
77325;BME280;66387;53.440;10.390;2024-03-07T10:48:13;102100.13;;;5.80;100.00
77325;BME280;66387;53.440;10.390;2024-03-07T10:50:45;102086.41;;;5.81;100.00
77325;BME280;66387;53.440;10.390;2024-03-07T10:53:24;102092.78;;;5.92;100.00
77325;BME280;66387;53.440;10.390;2024-03-07T10:56:21;102097.44;;;6.04;100.00
77325;BME280;66387;53.440;10.390;2024-03-07T10:59:16;102083.97;;;6.14;100.00
77325;BME280;66387;53.440;10.390;2024-03-07T11:01:56;102087.50;;;6.17;100.00
77325;BME280;66387;53.440;10.390;2024-03-07T11:04:24;102088.38;;;6.18;100.00
77325;BME280;66387;53.440;10.390;2024-03-07T11:06:50;102087.66;;;6.23;100.00
77325;BME280;66387;53.440;10.390;2024-03-07T11:09:15;102091.25;;;6.28;100.00
77325;BME280;66387;53.440;10.390;2024-03-07T11:11:48;102085.94;;;6.22;100.00
77325;BME280;66387;53.440;10.390;2024-03-07T11:14:14;102090.47;;;6.31;100.00
77325;BME280;66387;53.440;10.390;2024-03-07T11:16:42;102092.66;;;6.49;100.00
77325;BME280;66387;53.440;10.390;2024-03-07T11:19:26;102088.38;;;6.48;100.00
77325;BME280;66387;53.440;10.390;2024-03-07T11:22:01;102092.13;;;6.60;100.00
77325;BME280;66387;53.440;10.390;2024-03-07T11:24:28;102082.34;;;6.49;100.00
77325;BME280;66387;53.440;10.390;2024-03-07T11:26:55;102086.75;;;6.51;100.00
77325;BME280;66387;53.440;10.390;2024-03-07T11:29:49;102076.22;;;6.44;100.00
77325;BME280;66387;53.440;10.390;2024-03-07T11:32:18;102075.00;;;6.31;100.00
77325;BME280;66387;53.440;10.390;2024-03-07T11:34:46;102081.69;;;6.24;100.00
77325;BME280;66387;53.440;10.390;2024-03-07T11:37:17;102077.19;;;6.17;100.00
77325;BME280;66387;53.440;10.390;2024-03-07T11:42:29;102071.88;;;6.11;100.00
77325;BME280;66387;53.440;10.390;2024-03-07T11:44:57;102073.81;;;6.18;100.00
77325;BME280;66387;53.440;10.390;2024-03-07T11:47:24;102069.69;;;6.25;100.00
77325;BME280;66387;53.440;10.390;2024-03-07T11:49:50;102069.00;;;6.32;100.00
77325;BME280;66387;53.440;10.390;2024-03-07T11:52:17;102065.47;;;6.28;100.00
77325;BME280;66387;53.440;10.390;2024-03-07T11:54:43;102061.13;;;6.26;100.00
77325;BME280;66387;53.440;10.390;2024-03-07T11:57:15;102070.78;;;6.34;100.00
77325;BME280;66387;53.440;10.390;2024-03-07T11:59:40;102061.06;;;6.56;100.00
77325;BME280;66387;53.440;10.390;2024-03-07T12:02:10;102054.22;;;6.58;100.00
77325;BME280;66387;53.440;10.390;2024-03-07T12:04:35;102054.84;;;6.82;100.00
77325;BME280;66387;53.440;10.390;2024-03-07T12:07:00;102052.53;;;6.93;100.00
77325;BME280;66387;53.440;10.390;2024-03-07T12:09:26;102057.06;;;7.01;100.00
77325;BME280;66387;53.440;10.390;2024-03-07T12:11:51;102040.66;;;6.99;100.00
77325;BME280;66387;53.440;10.390;2024-03-07T12:14:21;102043.09;;;6.93;100.00
77325;BME280;66387;53.440;10.390;2024-03-07T12:16:46;102048.19;;;6.90;100.00
77325;BME280;66387;53.440;10.390;2024-03-07T12:19:12;102033.75;;;6.98;100.00
77325;BME280;66387;53.440;10.390;2024-03-07T12:21:38;102046.00;;;7.07;100.00
77325;BME280;66387;53.440;10.390;2024-03-07T12:24:13;102035.78;;;7.11;100.00
77325;BME280;66387;53.440;10.390;2024-03-07T12:26:38;102031.91;;;7.30;100.00
77325;BME280;66387;53.440;10.390;2024-03-07T12:29:08;102028.63;;;7.35;100.00
77325;BME280;66387;53.440;10.390;2024-03-07T12:31:37;102021.69;;;7.34;100.00
77325;BME280;66387;53.440;10.390;2024-03-07T12:34:02;102026.72;;;7.28;100.00
77325;BME280;66387;53.440;10.390;2024-03-07T12:36:30;102021.63;;;7.31;100.00
77325;BME280;66387;53.440;10.390;2024-03-07T12:39:00;102018.41;;;7.42;100.00
77325;BME280;66387;53.440;10.390;2024-03-07T12:41:34;102005.66;;;7.51;100.00